createdAt,value
2019-02-11T00:00:24.284Z,31.1
2019-02-11T00:01:14.563Z,30.9
2019-02-11T00:02:04.996Z,30.7
2019-02-11T00:02:54.446Z,30.6
2019-02-11T00:03:44.731Z,29.9
2019-02-11T00:04:34.301Z,30.1
2019-02-11T00:05:23.749Z,31.1
2019-02-11T00:06:14.657Z,31.5
2019-02-11T00:07:04.163Z,31.9
2019-02-11T00:07:54.206Z,32.2
2019-02-11T00:08:45.078Z,32.4
2019-02-11T00:09:34.589Z,32.8
2019-02-11T00:10:25.211Z,33
2019-02-11T00:11:15.898Z,33.3
2019-02-11T00:12:04.213Z,33.6
2019-02-11T00:12:54.560Z,33.8
2019-02-11T00:13:45.218Z,33.9
2019-02-11T00:14:34.957Z,34.1
2019-02-11T00:15:24.426Z,34.3
2019-02-11T00:16:15.895Z,34.4
2019-02-11T00:17:06.007Z,34.6
2019-02-11T00:17:55.778Z,34.7
2019-02-11T00:18:45.829Z,34.1
2019-02-11T00:19:36.180Z,33.9
2019-02-11T00:20:25.403Z,33.4
2019-02-11T00:21:15.675Z,33
2019-02-11T00:22:06.310Z,32.6
2019-02-11T00:22:55.242Z,32.4
2019-02-11T00:23:45.618Z,32.1
2019-02-11T00:24:35.981Z,31.9
2019-02-11T00:25:25.137Z,31.7
2019-02-11T00:26:15.787Z,31.5
2019-02-11T00:27:05.562Z,31.3
2019-02-11T00:27:55.964Z,31.3
2019-02-11T00:28:46.810Z,30.9
2019-02-11T00:29:36.325Z,30.7
2019-02-11T00:30:26.872Z,30.5
2019-02-11T00:31:16.728Z,29.8
2019-02-11T00:32:06.785Z,30.2
2019-02-11T00:32:58.327Z,31.1
2019-02-11T00:33:46.859Z,31.5
2019-02-11T00:34:36.419Z,31.9
2019-02-11T00:35:26.177Z,32.2
2019-02-11T00:36:16.463Z,32.5
2019-02-11T00:37:07.383Z,32.8
2019-02-11T00:37:56.602Z,33
2019-02-11T00:38:46.387Z,32.3
2019-02-11T00:39:36.564Z,31.2
2019-02-11T00:40:26.561Z,29.3
2019-02-11T00:41:16.564Z,27.6
2019-02-11T00:42:06.321Z,26.1
2019-02-11T00:42:57.500Z,26.1
2019-02-11T00:43:47.251Z,26.5
2019-02-11T00:44:36.484Z,28.1
2019-02-11T00:45:27.379Z,29.5
2019-02-11T00:46:17.426Z,30.4
2019-02-11T00:47:07.522Z,31.2
2019-02-11T00:47:56.707Z,31.8
2019-02-11T00:48:47.066Z,32.2
2019-02-11T00:49:36.012Z,32.6
2019-02-11T00:50:27.573Z,32.9
2019-02-11T00:51:17.506Z,33.2
2019-02-11T00:52:07.571Z,33.5
2019-02-11T00:52:58.458Z,33.7
2019-02-11T00:53:48.821Z,33.9
2019-02-11T00:54:38.301Z,34.1
2019-02-11T00:55:28.411Z,34.3
2019-02-11T00:56:18.399Z,34.4
2019-02-11T00:57:08.508Z,34.5
2019-02-11T00:57:58.540Z,34.6
2019-02-11T00:58:47.778Z,34.1
2019-02-11T00:59:38.116Z,33.9
2019-02-11T01:00:27.943Z,33.4
2019-02-11T01:01:19.575Z,33
2019-02-11T01:02:07.970Z,32.7
2019-02-11T01:02:59.182Z,32.4
2019-02-11T01:03:48.680Z,32.3
2019-02-11T01:04:38.754Z,32.1
2019-02-11T01:05:28.519Z,31.9
2019-02-11T01:06:18.305Z,31.7
2019-02-11T01:07:10.830Z,31.5
2019-02-11T01:07:58.135Z,31.4
2019-02-11T01:08:48.458Z,31.2
2019-02-11T01:09:39.327Z,30.9
2019-02-11T01:10:28.355Z,30.7
2019-02-11T01:11:19.287Z,30.4
2019-02-11T01:12:09.250Z,29.7
2019-02-11T01:12:58.442Z,30.6
2019-02-11T01:13:48.930Z,31.3
2019-02-11T01:14:37.772Z,31.7
2019-02-11T01:15:28.077Z,32.1
2019-02-11T01:16:19.539Z,32.3
2019-02-11T01:17:09.594Z,32.6
2019-02-11T01:18:00.032Z,32.9
2019-02-11T01:18:48.949Z,33.1
2019-02-11T01:19:40.052Z,33.3
2019-02-11T01:20:28.999Z,33.6
2019-02-11T01:21:19.606Z,33.8
2019-02-11T01:22:10.539Z,33.9
2019-02-11T01:22:59.462Z,34.1
2019-02-11T01:23:48.669Z,34.3
2019-02-11T01:24:39.556Z,34.4
2019-02-11T01:25:29.611Z,34.6
2019-02-11T01:26:20.234Z,34.6
2019-02-11T01:27:10.574Z,34.1
2019-02-11T01:28:00.123Z,33.8
2019-02-11T01:28:50.178Z,33.4
2019-02-11T01:29:40.201Z,32.9
2019-02-11T01:30:30.846Z,32.6
2019-02-11T01:31:19.498Z,32.4
2019-02-11T01:32:10.068Z,32.1
2019-02-11T01:33:00.435Z,31.9
2019-02-11T01:33:51.146Z,31.7
2019-02-11T01:34:40.558Z,31.5
2019-02-11T01:35:31.156Z,31.4
2019-02-11T01:36:20.162Z,31.4
2019-02-11T01:37:09.876Z,31
2019-02-11T01:38:00.803Z,30.8
2019-02-11T01:38:51.140Z,30.6
2019-02-11T01:39:40.970Z,30.3
2019-02-11T01:40:31.275Z,29.7
2019-02-11T01:41:20.443Z,30.7
2019-02-11T01:42:10.601Z,31.3
2019-02-11T01:43:01.701Z,31.7
2019-02-11T01:43:51.218Z,32.1
2019-02-11T01:44:41.232Z,32.4
2019-02-11T01:45:30.750Z,32.6
2019-02-11T01:46:21.172Z,32.9
2019-02-11T01:47:10.644Z,33.1
2019-02-11T01:48:01.214Z,33.4
2019-02-11T01:48:52.092Z,33.6
2019-02-11T01:49:42.162Z,33.8
2019-02-11T01:50:31.935Z,34
2019-02-11T01:51:22.329Z,34.1
2019-02-11T01:52:11.287Z,34.3
2019-02-11T01:53:03.017Z,34.4
2019-02-11T01:53:52.740Z,34.5
2019-02-11T01:54:43.056Z,34.4
2019-02-11T01:55:31.727Z,33.9
2019-02-11T01:56:21.905Z,33.6
2019-02-11T01:57:11.637Z,33.2
2019-02-11T01:58:02.732Z,32.8
2019-02-11T01:58:52.014Z,32.6
2019-02-11T01:59:42.314Z,32.3
2019-02-11T02:00:31.809Z,32.1
2019-02-11T02:01:22.669Z,31.9
2019-02-11T02:02:12.739Z,31.8
2019-02-11T02:03:02.855Z,31.6
2019-02-11T02:03:52.591Z,31.4
2019-02-11T02:04:43.508Z,31.3
2019-02-11T02:05:32.151Z,30.9
2019-02-11T02:06:23.046Z,30.8
2019-02-11T02:07:13.396Z,30.6
2019-02-11T02:08:03.151Z,30.1
2019-02-11T02:08:53.758Z,29.8
2019-02-11T02:09:42.166Z,30.9
2019-02-11T02:10:32.772Z,31.4
2019-02-11T02:11:23.390Z,31.8
2019-02-11T02:12:13.178Z,32.1
2019-02-11T02:13:02.398Z,32.4
2019-02-11T02:13:53.468Z,32.6
2019-02-11T02:14:43.888Z,32.9
2019-02-11T02:15:33.715Z,33.1
2019-02-11T02:16:24.298Z,33.4
2019-02-11T02:17:13.250Z,33.6
2019-02-11T02:18:03.912Z,33.8
2019-02-11T02:18:53.130Z,33.9
2019-02-11T02:19:43.416Z,34.1
2019-02-11T02:20:34.316Z,34.3
2019-02-11T02:21:24.390Z,34.4
2019-02-11T02:22:12.340Z,34.5
2019-02-11T02:23:04.830Z,34.4
2019-02-11T02:23:54.823Z,33.9
2019-02-11T02:24:44.044Z,33.6
2019-02-11T02:25:34.173Z,33.1
2019-02-11T02:26:23.977Z,32.8
2019-02-11T02:27:13.965Z,32.6
2019-02-11T02:28:04.557Z,32.3
2019-02-11T02:28:53.774Z,32.1
2019-02-11T02:29:44.963Z,31.9
2019-02-11T02:30:34.080Z,31.7
2019-02-11T02:31:24.262Z,31.6
2019-02-11T02:32:14.144Z,31.4
2019-02-11T02:33:05.332Z,31.2
2019-02-11T02:33:55.259Z,30.9
2019-02-11T02:34:45.212Z,30.7
2019-02-11T02:35:35.222Z,30.5
2019-02-11T02:36:25.272Z,29.8
2019-02-11T02:37:15.809Z,30.1
2019-02-11T02:38:05.622Z,31.1
2019-02-11T02:38:55.519Z,31.5
2019-02-11T02:39:45.388Z,31.9
2019-02-11T02:40:35.001Z,32.1
2019-02-11T02:41:25.069Z,32.4
2019-02-11T02:42:16.222Z,32.7
2019-02-11T02:43:05.980Z,32.7
2019-02-11T02:44:05.093Z,31.7
2019-02-11T02:44:44.491Z,29.9
2019-02-11T02:45:34.574Z,28.9
2019-02-11T02:46:24.931Z,27.7
2019-02-11T02:47:15.467Z,25.8
2019-02-11T02:48:05.303Z,24.5
2019-02-11T02:48:55.614Z,24.6
2019-02-11T02:49:45.906Z,25.3
2019-02-11T02:50:35.703Z,27
2019-02-11T02:51:25.814Z,28.6
2019-02-11T02:52:14.795Z,29.8
2019-02-11T02:53:05.952Z,30.6
2019-02-11T02:53:55.670Z,31.3
2019-02-11T02:54:46.283Z,31.9
2019-02-11T02:55:35.745Z,32.3
2019-02-11T02:56:25.373Z,32.6
2019-02-11T02:57:16.338Z,32.9
2019-02-11T02:58:05.735Z,33.2
2019-02-11T02:58:56.370Z,33.4
2019-02-11T02:59:46.272Z,33.7
2019-02-11T03:00:36.652Z,33.9
2019-02-11T03:01:27.218Z,34.1
2019-02-11T03:02:17.022Z,34.2
2019-02-11T03:03:06.325Z,34.4
2019-02-11T03:03:56.745Z,34.5
2019-02-11T03:04:47.220Z,34.6
2019-02-11T03:08:19.380Z,32.9
2019-02-11T03:09:09.451Z,32.6
2019-02-11T03:10:00.186Z,32.4
2019-02-11T03:10:50.395Z,32.1
2019-02-11T03:11:39.650Z,32
2019-02-11T03:12:30.197Z,31.8
2019-02-11T03:13:20.244Z,31.6
2019-02-11T03:14:16.088Z,31.5
2019-02-11T03:14:59.378Z,31.4
2019-02-11T03:15:50.731Z,31.1
2019-02-11T03:16:38.864Z,30.8
2019-02-11T03:17:30.530Z,30.6
2019-02-11T03:18:20.790Z,30.4
2019-02-11T03:19:10.084Z,29.7
2019-02-11T03:19:59.908Z,30.6
2019-02-11T03:20:50.476Z,31.3
2019-02-11T03:21:39.977Z,31.7
2019-02-11T03:22:30.612Z,32
2019-02-11T03:23:20.440Z,32.3
2019-02-11T03:24:11.021Z,32.6
2019-02-11T03:24:59.991Z,32.8
2019-02-11T03:25:51.210Z,33.1
2019-02-11T03:26:40.585Z,33.3
2019-02-11T03:27:30.972Z,33.4
2019-02-11T03:28:20.751Z,33.6
2019-02-11T03:29:11.127Z,33.8
2019-02-11T03:30:01.800Z,33.9
2019-02-11T03:30:50.668Z,34.1
2019-02-11T03:31:41.837Z,34.3
2019-02-11T03:32:31.354Z,34.4
2019-02-11T03:33:22.119Z,34.4
2019-02-11T03:34:11.496Z,34.5
2019-02-11T03:35:01.889Z,33.9
2019-02-11T03:35:51.813Z,33.6
2019-02-11T03:36:41.668Z,33.2
2019-02-11T03:37:31.646Z,32.9
2019-02-11T03:38:22.027Z,32.7
2019-02-11T03:39:12.385Z,32.4
2019-02-11T03:40:01.661Z,32.3
2019-02-11T03:40:52.445Z,32.1
2019-02-11T03:41:41.980Z,31.9
2019-02-11T03:42:32.297Z,31.7
2019-02-11T03:43:22.095Z,31.6
2019-02-11T03:44:22.029Z,31.5
2019-02-11T03:45:01.714Z,31
2019-02-11T03:45:52.312Z,30.8
2019-02-11T03:46:42.102Z,30.6
2019-02-11T03:47:32.662Z,30.5
2019-02-11T03:48:22.165Z,29.7
2019-02-11T03:49:12.422Z,30.2
2019-02-11T03:50:02.151Z,31.1
2019-02-11T03:50:52.117Z,31.5
2019-02-11T03:51:41.891Z,31.9
2019-02-11T03:52:31.749Z,32.1
2019-02-11T03:53:22.052Z,32.4
2019-02-11T03:54:11.762Z,32.7
2019-02-11T03:55:03.250Z,32.9
2019-02-11T03:55:52.742Z,33.2
2019-02-11T03:56:41.974Z,33.4
2019-02-11T03:57:32.616Z,33.6
2019-02-11T03:58:22.689Z,33.8
2019-02-11T03:59:13.058Z,33.9
2019-02-11T04:00:02.985Z,34
2019-02-11T04:00:53.009Z,34.2
2019-02-11T04:01:43.358Z,34.3
2019-02-11T04:02:33.459Z,34.4
2019-02-11T04:03:23.504Z,34.5
2019-02-11T04:04:13.374Z,34
2019-02-11T04:05:03.707Z,33.8
2019-02-11T04:05:53.087Z,33.4
2019-02-11T04:06:43.497Z,33.1
2019-02-11T04:07:33.256Z,32.8
2019-02-11T04:08:23.257Z,32.6
2019-02-11T04:09:13.985Z,32.4
2019-02-11T04:10:04.461Z,32.1
2019-02-11T04:10:54.014Z,32
2019-02-11T04:11:44.062Z,31.8
2019-02-11T04:12:34.177Z,31.7
2019-02-11T04:13:23.924Z,31.6
2019-02-11T04:14:14.508Z,31.2
2019-02-11T04:15:05.115Z,30.9
2019-02-11T04:15:54.118Z,30.7
2019-02-11T04:16:44.365Z,30.5
2019-02-11T04:17:33.385Z,30.1
2019-02-11T04:18:24.803Z,29.8
2019-02-11T04:19:15.238Z,30.8
2019-02-11T04:20:05.220Z,31.4
2019-02-11T04:20:57.490Z,31.7
2019-02-11T04:21:44.563Z,32
2019-02-11T04:22:34.810Z,32.3
2019-02-11T04:23:25.200Z,32.5
2019-02-11T04:24:15.078Z,32.8
2019-02-11T04:25:04.563Z,33
2019-02-11T04:25:55.132Z,33.2
2019-02-11T04:26:45.107Z,33.4
2019-02-11T04:27:34.612Z,33.6
2019-02-11T04:28:25.547Z,33.8
2019-02-11T04:29:15.811Z,33.9
2019-02-11T04:30:05.400Z,34
2019-02-11T04:30:55.801Z,34.1
2019-02-11T04:31:45.040Z,34.3
2019-02-11T04:32:34.712Z,34.4
2019-02-11T04:33:25.357Z,34.1
2019-02-11T04:34:14.870Z,33.1
2019-02-11T04:35:05.584Z,31.2
2019-02-11T04:35:55.514Z,29.8
2019-02-11T04:36:46.164Z,28.6
2019-02-11T04:37:35.591Z,26.9
2019-02-11T04:38:25.915Z,25.2
2019-02-11T04:39:15.737Z,25.3
2019-02-11T04:40:05.428Z,25.4
2019-02-11T04:40:55.837Z,27.1
2019-02-11T04:41:45.847Z,28.8
2019-02-11T04:42:35.689Z,30.1
2019-02-11T04:43:26.074Z,31
2019-02-11T04:44:15.799Z,31.6
2019-02-11T04:45:06.686Z,32.1
2019-02-11T04:45:56.709Z,32.5
2019-02-11T04:46:46.811Z,32.9
2019-02-11T04:47:35.822Z,33.2
2019-02-11T04:48:26.356Z,33.5
2019-02-11T04:49:16.168Z,33.8
2019-02-11T04:50:07.292Z,33.9
2019-02-11T04:50:56.548Z,34.1
2019-02-11T04:51:46.306Z,34.3
2019-02-11T04:52:37.552Z,34.4
2019-02-11T04:53:26.424Z,34.6
2019-02-11T04:54:17.127Z,34
2019-02-11T04:55:07.019Z,33.8
2019-02-11T04:55:57.235Z,33.3
2019-02-11T04:56:47.504Z,32.9
2019-02-11T04:57:37.586Z,32.7
2019-02-11T04:58:26.240Z,32.5
2019-02-11T04:59:17.235Z,32.3
2019-02-11T05:00:08.323Z,32.1
2019-02-11T05:00:57.530Z,31.9
2019-02-11T05:01:47.011Z,31.8
2019-02-11T05:02:36.858Z,31.6
2019-02-11T05:03:27.438Z,31.5
2019-02-11T05:04:18.315Z,31.1
2019-02-11T05:05:07.748Z,30.8
2019-02-11T05:05:58.145Z,30.6
2019-02-11T05:06:48.348Z,30.5
2019-02-11T05:07:38.083Z,29.8
2019-02-11T05:08:27.610Z,30.2
2019-02-11T05:09:18.175Z,31.2
2019-02-11T05:10:08.810Z,31.6
2019-02-11T05:10:58.235Z,31.9
2019-02-11T05:11:47.772Z,32.2
2019-02-11T05:12:38.110Z,32.5
2019-02-11T05:13:28.749Z,32.8
2019-02-11T05:14:18.278Z,33
2019-02-11T05:15:08.314Z,33.3
2019-02-11T05:15:58.202Z,33.4
2019-02-11T05:16:48.397Z,33.6
2019-02-11T05:17:38.682Z,33.8
2019-02-11T05:18:28.334Z,33.9
2019-02-11T05:19:18.854Z,34.1
2019-02-11T05:20:08.049Z,34.3
2019-02-11T05:20:59.687Z,34.4
2019-02-11T05:21:48.007Z,34.5
2019-02-11T05:22:38.530Z,33.9
2019-02-11T05:23:29.209Z,33.8
2019-02-11T05:24:19.739Z,33.3
2019-02-11T05:25:09.561Z,32.9
2019-02-11T05:25:58.568Z,32.7
2019-02-11T05:26:48.829Z,32.5
2019-02-11T05:27:39.213Z,32.3
2019-02-11T05:28:29.829Z,32.1
2019-02-11T05:29:18.979Z,31.9
2019-02-11T05:30:10.120Z,31.8
2019-02-11T05:30:59.081Z,31.6
2019-02-11T05:31:50.070Z,31.4
2019-02-11T05:32:39.596Z,31.3
2019-02-11T05:33:30.287Z,30.9
2019-02-11T05:34:19.986Z,30.7
2019-02-11T05:35:11.037Z,30.5
2019-02-11T05:36:00.016Z,30
2019-02-11T05:36:49.806Z,29.8
2019-02-11T05:37:39.809Z,30.8
2019-02-11T05:38:29.653Z,31.4
2019-02-11T05:39:19.786Z,31.7
2019-02-11T05:40:10.785Z,32
2019-02-11T05:40:59.865Z,32.3
2019-02-11T05:41:49.940Z,32.6
2019-02-11T05:42:39.980Z,32.8
2019-02-11T05:43:30.840Z,33.1
2019-02-11T05:44:19.996Z,33.3
2019-02-11T05:45:11.042Z,33.5
2019-02-11T05:46:00.145Z,33.7
2019-02-11T05:46:51.257Z,33.8
2019-02-11T05:47:41.135Z,33.9
2019-02-11T05:48:29.706Z,34.1
2019-02-11T05:49:21.167Z,34.3
2019-02-11T05:50:10.488Z,34.4
2019-02-11T05:51:01.005Z,34.4
2019-02-11T05:51:51.153Z,34
2019-02-11T05:52:41.489Z,33.8
2019-02-11T05:53:31.225Z,33.4
2019-02-11T05:54:21.547Z,33.1
2019-02-11T05:55:11.347Z,32.8
2019-02-11T05:56:01.421Z,32.5
2019-02-11T05:56:51.685Z,32.3
2019-02-11T05:57:40.701Z,32
2019-02-11T05:58:31.577Z,31.8
2019-02-11T05:59:21.297Z,31.6
2019-02-11T06:00:11.076Z,31.4
2019-02-11T06:01:01.173Z,31.3
2019-02-11T06:01:51.521Z,31.1
2019-02-11T06:02:41.794Z,30.8
2019-02-11T06:03:32.289Z,30.6
2019-02-11T06:06:18.984Z,29.8
2019-02-11T06:07:08.656Z,30.9
2019-02-11T06:07:59.028Z,31.5
2019-02-11T06:08:48.766Z,31.8
2019-02-11T06:09:39.374Z,32.1
2019-02-11T06:10:29.225Z,32.4
2019-02-11T06:11:19.029Z,32.6
2019-02-11T06:12:09.883Z,32.9
2019-02-11T06:13:00.386Z,33.1
2019-02-11T06:13:49.598Z,33.3
2019-02-11T06:14:39.760Z,33.5
2019-02-11T06:15:29.739Z,33.7
2019-02-11T06:16:20.101Z,33.8
2019-02-11T06:17:10.139Z,34
2019-02-11T06:17:59.723Z,34.2
2019-02-11T06:18:49.018Z,34.3
2019-02-11T06:19:39.469Z,34.4
2019-02-11T06:20:29.863Z,34.5
2019-02-11T06:21:20.391Z,34
2019-02-11T06:22:11.004Z,33.8
2019-02-11T06:23:00.282Z,33.3
2019-02-11T06:23:50.052Z,32.9
2019-02-11T06:24:40.335Z,32.7
2019-02-11T06:25:31.250Z,32.4
2019-02-11T06:26:21.013Z,32.2
2019-02-11T06:27:09.870Z,32
2019-02-11T06:28:00.055Z,31.8
2019-02-11T06:28:51.035Z,31.6
2019-02-11T06:29:41.017Z,31.5
2019-02-11T06:30:30.550Z,31.4
2019-02-11T06:31:20.305Z,31.1
2019-02-11T06:32:11.835Z,30.8
2019-02-11T06:33:00.715Z,30.6
2019-02-11T06:33:50.477Z,30.4
2019-02-11T06:34:42.377Z,29.7
2019-02-11T06:35:31.430Z,30.3
2019-02-11T06:36:21.703Z,31.1
2019-02-11T06:37:10.214Z,31.6
2019-02-11T06:38:01.320Z,31.9
2019-02-11T06:38:51.447Z,32.2
2019-02-11T06:39:42.075Z,32.5
2019-02-11T06:40:31.938Z,32.8
2019-02-11T06:41:20.721Z,32.6
2019-02-11T06:42:11.961Z,31.6
2019-02-11T06:43:01.136Z,30
2019-02-11T06:43:51.716Z,28.8
2019-02-11T06:44:40.961Z,27.6
2019-02-11T06:45:31.526Z,26.1
2019-02-11T06:46:21.056Z,24.1
2019-02-11T06:47:12.498Z,23.9
2019-02-11T06:48:02.276Z,23.9
2019-02-11T06:48:52.324Z,25.6
2019-02-11T06:49:42.123Z,27.3
2019-02-11T06:50:32.456Z,28.8
2019-02-11T06:51:20.859Z,29.9
2019-02-11T06:52:11.175Z,30.8
2019-02-11T06:53:02.403Z,31.4
2019-02-11T06:53:51.294Z,32
2019-02-11T06:54:41.941Z,32.4
2019-02-11T06:55:31.740Z,32.1
2019-02-11T06:56:22.033Z,32
2019-02-11T06:57:14.636Z,31.7
2019-02-11T06:58:03.300Z,31.4
2019-02-11T06:58:52.742Z,31.1
2019-02-11T06:59:42.816Z,30.9
2019-02-11T07:00:32.386Z,30.7
2019-02-11T07:01:36.535Z,30.6
2019-02-11T07:02:12.745Z,30.3
2019-02-11T07:03:02.518Z,30.3
2019-02-11T07:03:53.106Z,30.1
2019-02-11T07:06:19.362Z,29.2
2019-02-11T07:07:09.165Z,28.9
2019-02-11T07:07:58.867Z,28.7
2019-02-11T07:08:48.657Z,28.5
2019-02-11T07:09:39.309Z,28.3
2019-02-11T07:10:29.355Z,28.3
2019-02-11T07:11:18.310Z,28.1
2019-02-11T07:12:08.692Z,28
2019-02-11T07:12:59.777Z,27.4
2019-02-11T07:13:49.847Z,28.7
2019-02-11T07:14:40.174Z,29.8
2019-02-11T07:15:32.109Z,30.4
2019-02-11T07:16:20.067Z,31.1
2019-02-11T07:17:09.049Z,31.5
2019-02-11T07:17:59.595Z,31.9
2019-02-11T07:18:50.252Z,32.3
2019-02-11T07:19:40.241Z,32.6
2019-02-11T07:20:29.857Z,32.2
2019-02-11T07:21:19.510Z,32.2
2019-02-11T07:22:10.444Z,31.8
2019-02-11T07:22:59.916Z,31.4
2019-02-11T07:23:49.979Z,31.2
2019-02-11T07:24:40.610Z,31
2019-02-11T07:25:30.124Z,30.8
2019-02-11T07:26:20.154Z,30.6
2019-02-11T07:27:09.924Z,30.4
2019-02-11T07:28:01.154Z,30.3
2019-02-11T07:28:50.928Z,30.1
2019-02-11T07:29:40.378Z,30
2019-02-11T07:30:29.127Z,29.6
2019-02-11T07:31:21.046Z,29.2
2019-02-11T07:32:11.416Z,28.9
2019-02-11T07:33:01.239Z,28.7
2019-02-11T07:33:50.151Z,28.5
2019-02-11T07:34:40.218Z,28.4
2019-02-11T07:35:31.659Z,28.2
2019-02-11T07:36:23.085Z,28.1
2019-02-11T07:37:11.593Z,27.5
2019-02-11T07:38:01.885Z,28.5
2019-02-11T07:38:50.553Z,29.6
2019-02-11T07:39:41.393Z,30.3
2019-02-11T07:40:30.878Z,30.9
2019-02-11T07:41:21.730Z,31.4
2019-02-11T07:42:12.965Z,31.8
2019-02-11T07:42:59.921Z,32.2
2019-02-11T07:43:50.903Z,32.4
2019-02-11T07:44:40.020Z,32.6
2019-02-11T07:45:39.982Z,32.2
2019-02-11T07:46:21.853Z,31.9
2019-02-11T07:47:11.847Z,31.6
2019-02-11T07:48:02.005Z,31.3
2019-02-11T07:48:51.448Z,31.1
2019-02-11T07:49:41.852Z,30.9
2019-02-11T07:50:31.625Z,30.8
2019-02-11T07:51:21.417Z,30.6
2019-02-11T07:52:12.052Z,30.4
2019-02-11T07:53:02.141Z,30.3
2019-02-11T07:53:52.092Z,30.1
2019-02-11T07:54:42.287Z,30
2019-02-11T07:55:31.699Z,29.5
2019-02-11T07:56:23.400Z,29.1
2019-02-11T07:57:12.902Z,28.8
2019-02-11T07:58:02.888Z,28.6
2019-02-11T07:58:52.152Z,28.4
2019-02-11T07:59:43.037Z,28.3
2019-02-11T08:00:33.115Z,28.1
2019-02-11T08:01:23.387Z,27.5
2019-02-11T08:02:12.974Z,28.4
2019-02-11T08:03:03.015Z,29.6
2019-02-11T08:03:52.779Z,30.3
2019-02-11T08:04:43.724Z,30.9
2019-02-11T08:05:32.119Z,31.4
2019-02-11T08:06:23.252Z,31.8
2019-02-11T08:07:13.041Z,32.1
2019-02-11T08:08:03.619Z,32.4
2019-02-11T08:08:53.691Z,32.7
2019-02-11T08:09:42.926Z,32.3
2019-02-11T08:10:33.308Z,32.2
2019-02-11T08:11:23.254Z,31.8
2019-02-11T08:12:12.915Z,31.4
2019-02-11T08:13:04.001Z,31.2
2019-02-11T08:13:52.125Z,30.9
2019-02-11T08:14:44.048Z,30.8
2019-02-11T08:15:41.225Z,30.6
2019-02-11T08:16:24.476Z,30.4
2019-02-11T08:17:14.321Z,30.3
2019-02-11T08:18:05.764Z,30.1
2019-02-11T08:18:53.840Z,29.9
2019-02-11T08:19:43.986Z,29.4
2019-02-11T08:20:33.915Z,29.1
2019-02-11T08:21:24.508Z,28.9
2019-02-11T08:22:13.568Z,28.6
2019-02-11T08:23:14.371Z,28.5
2019-02-11T08:23:54.012Z,28.3
2019-02-11T08:24:44.545Z,28.3
2019-02-11T08:25:34.348Z,27.6
2019-02-11T08:26:23.837Z,28.6
2019-02-11T08:27:13.947Z,29.7
2019-02-11T08:28:03.760Z,30.4
2019-02-11T08:28:54.549Z,31
2019-02-11T08:29:44.083Z,31.5
2019-02-11T08:30:34.684Z,31.9
2019-02-11T08:31:25.021Z,32.3
2019-02-11T08:32:15.334Z,32.6
2019-02-11T08:33:05.177Z,32.8
2019-02-11T08:33:54.617Z,32.4
2019-02-11T08:34:45.290Z,32.1
2019-02-11T08:35:36.692Z,31.7
2019-02-11T08:36:25.029Z,31.4
2019-02-11T08:37:14.974Z,31.1
2019-02-11T08:38:04.907Z,30.9
2019-02-11T08:38:55.574Z,30.7
2019-02-11T08:39:45.314Z,30.5
2019-02-11T08:40:34.544Z,30.3
2019-02-11T08:41:25.429Z,30.2
2019-02-11T08:42:14.917Z,30.1
2019-02-11T08:43:05.577Z,29.8
2019-02-11T08:43:55.879Z,29.3
2019-02-11T08:44:44.262Z,29
2019-02-11T08:45:35.752Z,28.8
2019-02-11T08:46:25.555Z,28.6
2019-02-11T08:47:16.041Z,28.4
2019-02-11T08:48:04.803Z,28.3
2019-02-11T08:48:55.985Z,27.9
2019-02-11T08:49:46.486Z,28.2
2019-02-11T08:50:36.641Z,29.4
2019-02-11T08:51:27.841Z,30.3
2019-02-11T08:52:15.624Z,30.9
2019-02-11T08:53:05.431Z,31.4
2019-02-11T08:53:55.467Z,31.8
2019-02-11T08:54:45.583Z,32.2
2019-02-11T08:55:35.860Z,32.6
2019-02-11T08:56:26.728Z,32.8
2019-02-11T08:57:16.158Z,32.4
2019-02-11T08:58:06.875Z,32.3
2019-02-11T08:58:56.413Z,31.9
2019-02-11T08:59:46.693Z,31.5
2019-02-11T09:00:36.680Z,31.2
2019-02-11T09:01:27.098Z,30.9
2019-02-11T09:02:16.624Z,30.7
2019-02-11T09:03:07.458Z,30.5
2019-02-11T09:03:56.163Z,30.4
2019-02-11T09:04:47.053Z,30.2
2019-02-11T09:05:36.268Z,30.1
2019-02-11T09:06:27.273Z,29.9
2019-02-11T09:07:16.435Z,29.8
2019-02-11T09:08:09.020Z,29.6
2019-02-11T09:08:57.031Z,29.6
2019-02-11T09:09:47.395Z,29.4
2019-02-11T09:10:37.790Z,29.3
2019-02-11T09:11:27.710Z,29.2
2019-02-11T09:12:18.072Z,29.1
2019-02-11T09:13:07.622Z,29
2019-02-11T09:13:58.154Z,28.8
2019-02-11T09:14:47.537Z,28.9
2019-02-11T09:15:38.082Z,29.9
2019-02-11T09:16:28.969Z,30.6
2019-02-11T09:17:20.194Z,31.1
2019-02-11T09:18:08.771Z,31.6
2019-02-11T09:18:57.655Z,31.9
2019-02-11T09:19:48.112Z,32.3
2019-02-11T09:20:37.245Z,32.6
2019-02-11T09:21:28.402Z,32.9
2019-02-11T09:22:18.172Z,32.5
2019-02-11T09:23:07.189Z,32.4
2019-02-11T09:23:58.899Z,32.1
2019-02-11T09:24:48.619Z,31.6
2019-02-11T09:25:39.232Z,31.3
2019-02-11T09:26:28.479Z,31
2019-02-11T09:27:18.517Z,30.8
2019-02-11T09:28:09.396Z,30.6
2019-02-11T09:28:58.459Z,30.4
2019-02-11T09:29:48.744Z,30.2
2019-02-11T09:30:39.820Z,30.1
2019-02-11T09:31:28.842Z,29.9
2019-02-11T09:32:20.166Z,29.8
2019-02-11T09:33:08.746Z,29.7
2019-02-11T09:33:58.839Z,29.6
2019-02-11T09:34:47.959Z,29.4
2019-02-11T09:35:39.696Z,29.4
2019-02-11T09:36:29.243Z,29.3
2019-02-11T09:37:20.310Z,29.1
2019-02-11T09:38:08.445Z,29
2019-02-11T09:38:59.618Z,28.8
2019-02-11T09:39:48.969Z,28.8
2019-02-11T09:40:40.090Z,29.9
2019-02-11T09:41:29.836Z,30.6
2019-02-11T09:42:19.685Z,31.1
2019-02-11T09:43:10.193Z,31.6
2019-02-11T09:44:00.038Z,31.9
2019-02-11T09:44:50.580Z,32.3
2019-02-11T09:45:39.265Z,32.6
2019-02-11T09:46:29.910Z,32.9
2019-02-11T09:47:20.198Z,32.5
2019-02-11T09:48:10.015Z,32.5
2019-02-11T09:48:59.562Z,32.1
2019-02-11T09:49:50.640Z,31.6
2019-02-11T09:50:39.654Z,31.3
2019-02-11T09:51:31.055Z,30.9
2019-02-11T09:52:19.714Z,30.8
2019-02-11T09:53:10.047Z,30.6
2019-02-11T09:54:00.953Z,30.4
2019-02-11T09:54:50.549Z,30.2
2019-02-11T09:55:40.492Z,30.1
2019-02-11T09:56:30.592Z,29.9
2019-02-11T09:57:20.597Z,29.8
2019-02-11T09:58:11.530Z,29.6
2019-02-11T09:59:00.430Z,29.6
2019-02-11T09:59:51.102Z,29.4
2019-02-11T10:00:40.657Z,29.3
2019-02-11T10:01:31.522Z,29.2
2019-02-11T10:02:20.977Z,29.1
2019-02-11T10:03:11.387Z,29
2019-02-11T10:04:00.604Z,28.8
2019-02-11T10:04:51.694Z,28.7
2019-02-11T10:07:18.589Z,30.9
2019-02-11T10:08:09.571Z,31.4
2019-02-11T10:08:59.634Z,31.8
2019-02-11T10:09:50.846Z,32.2
2019-02-11T10:10:39.443Z,32.5
2019-02-11T10:11:28.304Z,32.8
2019-02-11T10:12:27.691Z,33.1
2019-02-11T10:13:08.759Z,32.6
2019-02-11T10:13:59.067Z,32.4
2019-02-11T10:14:49.451Z,31.9
2019-02-11T10:15:38.998Z,31.4
2019-02-11T10:16:31.680Z,31.1
2019-02-11T10:17:19.083Z,30.9
2019-02-11T10:18:09.626Z,30.6
2019-02-11T10:18:59.203Z,30.4
2019-02-11T10:19:49.744Z,30.3
2019-02-11T10:20:39.073Z,30.1
2019-02-11T10:21:29.382Z,30
2019-02-11T10:22:19.903Z,29.8
2019-02-11T10:23:10.083Z,29.7
2019-02-11T10:24:00.308Z,29.6
2019-02-11T10:24:50.158Z,29.4
2019-02-11T10:25:39.880Z,29.4
2019-02-11T10:26:30.486Z,29.3
2019-02-11T10:27:20.033Z,29.1
2019-02-11T10:28:10.317Z,29.1
2019-02-11T10:29:00.411Z,28.9
2019-02-11T10:29:49.610Z,28.6
2019-02-11T10:30:41.091Z,29
2019-02-11T10:31:30.057Z,30.1
2019-02-11T10:32:21.169Z,30.6
2019-02-11T10:33:10.434Z,31.2
2019-02-11T10:34:01.559Z,31.6
2019-02-11T10:34:50.815Z,32
2019-02-11T10:35:48.932Z,32.3
2019-02-11T10:36:30.889Z,32.7
2019-02-11T10:37:20.944Z,32.9
2019-02-11T10:38:10.191Z,32.5
2019-02-11T10:39:00.262Z,32.5
2019-02-11T10:39:51.989Z,32.1
2019-02-11T10:40:40.689Z,31.6
2019-02-11T10:41:31.249Z,31.3
2019-02-11T10:42:21.346Z,30.9
2019-02-11T10:43:11.516Z,30.8
2019-02-11T10:44:01.725Z,30.5
2019-02-11T10:44:50.739Z,30.4
2019-02-11T10:45:45.844Z,30.2
2019-02-11T10:46:29.991Z,30
2019-02-11T10:47:20.869Z,29.9
2019-02-11T10:48:11.871Z,29.8
2019-02-11T10:49:01.018Z,29.6
2019-02-11T10:49:51.829Z,29.5
2019-02-11T10:50:42.551Z,29.4
2019-02-11T10:51:31.681Z,29.3
2019-02-11T10:52:21.157Z,29.2
2019-02-11T10:53:12.079Z,29.1
2019-02-11T10:54:01.929Z,29
2019-02-11T10:54:52.769Z,28.8
2019-02-11T10:55:41.495Z,28.8
2019-02-11T10:56:32.643Z,29.9
2019-02-11T10:57:22.083Z,30.6
2019-02-11T10:58:12.353Z,31.1
2019-02-11T10:59:02.508Z,31.6
2019-02-11T10:59:52.005Z,31.9
2019-02-11T11:00:42.865Z,32.3
2019-02-11T11:01:34.265Z,32.6
2019-02-11T11:02:21.925Z,32.9
2019-02-11T11:03:13.394Z,32.8
2019-02-11T11:04:01.792Z,32.6
2019-02-11T11:04:53.705Z,32.3
2019-02-11T11:05:42.478Z,31.8
2019-02-11T11:06:33.372Z,31.3
2019-02-11T11:07:22.788Z,31.1
2019-02-11T11:08:13.414Z,30.8
2019-02-11T11:09:04.869Z,30.6
2019-02-11T11:09:53.769Z,30.4
2019-02-11T11:10:42.472Z,30.2
2019-02-11T11:11:34.172Z,30.1
2019-02-11T11:12:22.287Z,29.9
2019-02-11T11:13:13.222Z,29.8
2019-02-11T11:14:03.037Z,29.7
2019-02-11T11:14:53.052Z,29.6
2019-02-11T11:15:43.007Z,29.4
2019-02-11T11:16:39.912Z,29.3